Time;durP1;ratioP1;P1;durP2;ratioP2;P2;SDS_P1;SDS_P2;PMS_P1;PMS_P2;Temp;Humidity;BMP_temperature;BMP_pressure;BME280_temperature;BME280_humidity;BME280_pressure;Samples;Min_cycle;Max_cycle;Signal;HPM_P1;HPM_P2
2021/07/09 00:00:57;;;;;;;5.72;4.45;;;;;;;;;;4972758;28;20050;-78
2021/07/09 00:03:23;;;;;;;5.22;3.95;;;;;;;;;;4988155;28;20018;-77
2021/07/09 00:05:48;;;;;;;5.70;4.35;;;;;;;;;;4991512;28;20707;-76
2021/07/09 00:08:13;;;;;;;7.87;4.93;;;;;;;;;;4990400;28;20018;-77
2021/07/09 00:10:39;;;;;;;7.20;4.47;;;;;;;;;;4991548;28;20266;-77
2021/07/09 00:13:04;;;;;;;6.20;4.63;;;;;;;;;;4991103;28;20169;-77
2021/07/09 00:15:36;;;;;;;6.55;4.85;;;;;;;;;;4991700;28;20278;-77
2021/07/09 00:18:01;;;;;;;5.60;4.40;;;;;;;;;;4991610;28;20585;-77
2021/07/09 00:20:27;;;;;;;5.30;4.38;;;;;;;;;;4991495;28;20113;-76
2021/07/09 00:22:52;;;;;;;6.00;4.60;;;;;;;;;;4982560;28;20035;-77
2021/07/09 00:25:18;;;;;;;8.35;4.20;;;;;;;;;;4972357;28;20259;-76
2021/07/09 00:27:43;;;;;;;4.87;4.10;;;;;;;;;;4970552;28;20172;-76
2021/07/09 00:30:08;;;;;;;5.63;4.67;;;;;;;;;;4971640;28;20109;-77
2021/07/09 00:32:34;;;;;;;6.65;4.32;;;;;;;;;;4970723;28;20081;-77
2021/07/09 00:34:59;;;;;;;5.50;4.63;;;;;;;;;;4972205;28;20018;-77
2021/07/09 00:37:24;;;;;;;5.93;4.33;;;;;;;;;;4987203;28;20038;-75
2021/07/09 00:39:49;;;;;;;5.87;4.73;;;;;;;;;;4991123;28;20033;-77
2021/07/09 00:42:15;;;;;;;5.23;4.27;;;;;;;;;;4990994;28;20026;-77
2021/07/09 00:44:40;;;;;;;5.75;4.10;;;;;;;;;;4991790;28;20165;-76
2021/07/09 00:47:05;;;;;;;5.60;4.07;;;;;;;;;;4991335;28;20033;-77
2021/07/09 00:49:30;;;;;;;6.60;4.60;;;;;;;;;;4991237;28;20051;-77
2021/07/09 00:51:55;;;;;;;7.03;4.30;;;;;;;;;;4990064;28;20033;-77
2021/07/09 00:54:21;;;;;;;6.18;4.35;;;;;;;;;;4988534;28;20038;-77
2021/07/09 00:56:46;;;;;;;6.97;3.67;;;;;;;;;;4989571;28;20077;-76
2021/07/09 00:59:13;;;;;;;8.02;4.80;;;;;;;;;;4990755;28;20030;-76
2021/07/09 01:01:59;;;;;;;5.60;3.83;;;;;;;;;;4990292;28;20022;-76
2021/07/09 01:04:24;;;;;;;5.68;3.63;;;;;;;;;;4947104;28;20023;-77
2021/07/09 01:06:49;;;;;;;5.30;4.00;;;;;;;;;;4949762;29;20039;-75
2021/07/09 01:09:14;;;;;;;4.80;3.87;;;;;;;;;;4949498;29;20046;-77
2021/07/09 01:11:40;;;;;;;5.27;4.13;;;;;;;;;;4949893;29;20730;-77
2021/07/09 01:14:08;;;;;;;5.00;3.65;;;;;;;;;;4930124;29;20570;-77
2021/07/09 01:16:33;;;;;;;6.50;3.70;;;;;;;;;;4929360;29;20054;-77
2021/07/09 01:18:59;;;;;;;5.20;3.83;;;;;;;;;;4929437;29;20028;-77
2021/07/09 01:21:24;;;;;;;4.97;4.25;;;;;;;;;;4930012;29;20032;-77
2021/07/09 01:23:55;;;;;;;6.07;4.47;;;;;;;;;;4928718;29;20043;-76
2021/07/09 01:26:20;;;;;;;6.13;4.22;;;;;;;;;;4929925;29;20028;-77
2021/07/09 01:28:45;;;;;;;6.70;4.13;;;;;;;;;;4929241;29;20074;-77
2021/07/09 01:31:11;;;;;;;6.60;4.60;;;;;;;;;;4930454;29;20028;-77
2021/07/09 01:33:36;;;;;;;6.50;4.43;;;;;;;;;;4928594;29;20064;-77
2021/07/09 01:36:01;;;;;;;5.70;4.50;;;;;;;;;;4929104;29;20833;-77
2021/07/09 01:38:26;;;;;;;6.47;5.17;;;;;;;;;;4928609;29;20024;-77
2021/07/09 01:40:52;;;;;;;6.00;4.70;;;;;;;;;;4942355;28;20517;-77
2021/07/09 01:43:17;;;;;;;7.50;5.32;;;;;;;;;;4990224;28;20608;-77
2021/07/09 01:45:42;;;;;;;7.23;4.57;;;;;;;;;;4990513;28;20027;-77
2021/07/09 01:48:08;;;;;;;5.63;4.40;;;;;;;;;;4990132;28;20418;-77
2021/07/09 01:50:33;;;;;;;6.05;4.75;;;;;;;;;;4972818;28;20049;-77
2021/07/09 01:52:59;;;;;;;6.72;4.32;;;;;;;;;;4986399;28;20058;-77
2021/07/09 01:55:24;;;;;;;6.23;4.37;;;;;;;;;;4989170;28;20042;-75
2021/07/09 01:57:49;;;;;;;5.68;4.30;;;;;;;;;;4988274;28;20307;-77
2021/07/09 02:00:21;;;;;;;6.10;4.30;;;;;;;;;;4989222;28;20444;-76
2021/07/09 02:02:46;;;;;;;7.65;4.45;;;;;;;;;;4989107;28;20124;-77
2021/07/09 02:05:16;;;;;;;7.28;4.40;;;;;;;;;;4989430;28;20121;-77
2021/07/09 02:07:42;;;;;;;5.60;4.50;;;;;;;;;;4989962;28;20066;-77
2021/07/09 02:10:07;;;;;;;5.28;3.95;;;;;;;;;;4989441;28;20046;-75
2021/07/09 02:12:32;;;;;;;5.85;4.32;;;;;;;;;;4988272;28;20089;-77
2021/07/09 02:14:59;;;;;;;6.55;4.38;;;;;;;;;;4969858;28;20031;-76
2021/07/09 02:17:24;;;;;;;6.00;4.18;;;;;;;;;;4968427;28;20510;-76
2021/07/09 02:19:49;;;;;;;5.60;4.40;;;;;;;;;;4969510;28;20069;-76
2021/07/09 02:22:15;;;;;;;6.57;4.38;;;;;;;;;;4969328;28;20035;-77
2021/07/09 02:24:41;;;;;;;5.38;4.32;;;;;;;;;;4970290;28;20046;-76
2021/07/09 02:27:06;;;;;;;6.13;4.40;;;;;;;;;;4968980;28;20351;-76
2021/07/09 02:29:32;;;;;;;7.28;4.13;;;;;;;;;;4968942;28;20494;-76
2021/07/09 02:31:58;;;;;;;5.50;4.30;;;;;;;;;;4969318;28;20557;-76
2021/07/09 02:34:23;;;;;;;5.60;4.32;;;;;;;;;;4952266;28;20023;-77
2021/07/09 02:36:48;;;;;;;5.70;4.13;;;;;;;;;;4973563;28;20097;-76
2021/07/09 02:39:13;;;;;;;5.33;4.13;;;;;;;;;;4989220;28;20301;-76
2021/07/09 02:41:39;;;;;;;5.57;4.07;;;;;;;;;;4983218;28;20022;-76
2021/07/09 02:44:04;;;;;;;5.82;4.28;;;;;;;;;;4969800;28;20803;-76
2021/07/09 02:46:29;;;;;;;5.40;4.45;;;;;;;;;;4968665;28;20034;-76
2021/07/09 02:48:55;;;;;;;4.70;3.88;;;;;;;;;;4969358;28;20117;-76
2021/07/09 02:51:20;;;;;;;5.30;4.17;;;;;;;;;;4969763;28;20035;-75
2021/07/09 02:53:46;;;;;;;6.82;4.40;;;;;;;;;;4982161;28;20097;-76
2021/07/09 02:56:11;;;;;;;5.73;4.30;;;;;;;;;;4989340;28;20033;-77
2021/07/09 02:58:36;;;;;;;4.67;4.00;;;;;;;;;;4988384;28;20787;-83
2021/07/09 03:01:01;;;;;;;5.93;4.30;;;;;;;;;;4967233;28;20473;-75
2021/07/09 03:03:27;;;;;;;6.00;4.78;;;;;;;;;;4988427;28;20417;-74
2021/07/09 03:05:52;;;;;;;5.80;4.10;;;;;;;;;;4974784;28;20383;-74
2021/07/09 03:08:17;;;;;;;7.23;4.20;;;;;;;;;;4968889;28;20569;-76
2021/07/09 03:10:42;;;;;;;8.35;4.47;;;;;;;;;;4967634;28;20274;-76
2021/07/09 03:13:08;;;;;;;6.63;4.70;;;;;;;;;;4968957;28;20539;-74
2021/07/09 03:15:33;;;;;;;6.00;4.03;;;;;;;;;;4968456;28;20480;-73
2021/07/09 03:17:58;;;;;;;5.18;4.18;;;;;;;;;;4978895;28;20553;-72
2021/07/09 03:20:24;;;;;;;5.30;4.10;;;;;;;;;;4986957;28;20655;-74
2021/07/09 03:22:49;;;;;;;7.95;4.75;;;;;;;;;;4981450;28;20835;-74
2021/07/09 03:25:15;;;;;;;5.90;4.10;;;;;;;;;;4984053;28;20117;-75
2021/07/09 03:27:40;;;;;;;6.15;4.32;;;;;;;;;;4969531;28;20030;-75
2021/07/09 03:30:05;;;;;;;5.10;4.40;;;;;;;;;;4956256;28;20089;-75
2021/07/09 03:32:31;;;;;;;6.57;4.40;;;;;;;;;;4969105;28;20266;-75
2021/07/09 03:34:56;;;;;;;5.00;4.00;;;;;;;;;;4969361;28;20161;-74
2021/07/09 03:37:21;;;;;;;5.38;4.20;;;;;;;;;;4983106;28;20102;-75
2021/07/09 03:39:47;;;;;;;5.80;4.10;;;;;;;;;;4987560;28;20026;-74
2021/07/09 03:42:12;;;;;;;6.27;4.10;;;;;;;;;;4983600;28;20045;-75
2021/07/09 03:44:37;;;;;;;6.50;4.27;;;;;;;;;;4981676;28;20019;-77
2021/07/09 03:47:02;;;;;;;6.70;3.92;;;;;;;;;;4983477;28;20257;-75
2021/07/09 03:49:28;;;;;;;5.28;4.25;;;;;;;;;;4970489;28;20022;-75
2021/07/09 03:51:53;;;;;;;7.37;4.40;;;;;;;;;;4967693;28;20034;-75
2021/07/09 03:54:18;;;;;;;7.70;3.92;;;;;;;;;;4968903;28;20030;-75
2021/07/09 03:56:43;;;;;;;6.90;3.87;;;;;;;;;;4969819;28;20018;-74
2021/07/09 03:59:09;;;;;;;5.33;4.03;;;;;;;;;;4975882;28;20072;-75
2021/07/09 04:01:34;;;;;;;6.20;4.40;;;;;;;;;;4975117;28;20181;-75
2021/07/09 04:03:59;;;;;;;5.23;4.03;;;;;;;;;;4971040;28;20113;-75
2021/07/09 04:06:24;;;;;;;5.17;3.93;;;;;;;;;;4979019;28;20281;-74
2021/07/09 04:08:50;;;;;;;5.63;4.25;;;;;;;;;;4972710;28;20022;-75
2021/07/09 04:11:15;;;;;;;5.93;4.57;;;;;;;;;;4970932;28;20038;-75
2021/07/09 04:13:40;;;;;;;7.13;4.60;;;;;;;;;;4970278;28;20474;-76
2021/07/09 04:16:05;;;;;;;5.93;4.23;;;;;;;;;;4972275;28;20141;-77
2021/07/09 04:18:34;;;;;;;5.43;4.28;;;;;;;;;;4987949;28;20061;-78
2021/07/09 04:20:59;;;;;;;5.72;4.40;;;;;;;;;;4987994;28;20076;-73
2021/07/09 04:23:25;;;;;;;5.63;4.40;;;;;;;;;;4972392;28;20444;-74
2021/07/09 04:25:50;;;;;;;7.28;5.20;;;;;;;;;;5001531;28;20539;-74
2021/07/09 04:28:15;;;;;;;6.33;4.23;;;;;;;;;;4990218;28;20476;-74
2021/07/09 04:30:40;;;;;;;7.53;4.60;;;;;;;;;;4999468;28;20030;-74
2021/07/09 04:33:06;;;;;;;5.78;4.53;;;;;;;;;;4987681;28;20643;-72
2021/07/09 04:35:31;;;;;;;6.60;4.97;;;;;;;;;;4987934;28;20109;-72
2021/07/09 04:37:56;;;;;;;7.03;4.70;;;;;;;;;;4999517;28;20449;-74
2021/07/09 04:40:21;;;;;;;5.63;4.28;;;;;;;;;;4991676;28;20042;-74
2021/07/09 04:42:47;;;;;;;6.10;4.67;;;;;;;;;;4991199;28;20555;-75
2021/07/09 04:45:12;;;;;;;7.43;4.60;;;;;;;;;;4991537;28;20101;-75
2021/07/09 04:47:37;;;;;;;8.60;4.63;;;;;;;;;;4991367;28;20283;-77
2021/07/09 04:50:03;;;;;;;6.97;4.57;;;;;;;;;;4993002;28;20042;-80
2021/07/09 04:52:28;;;;;;;6.72;4.65;;;;;;;;;;4992066;28;20055;-77
2021/07/09 04:54:54;;;;;;;7.90;4.93;;;;;;;;;;5003856;28;20037;-74
2021/07/09 04:57:19;;;;;;;5.65;4.75;;;;;;;;;;4993467;28;20476;-78
2021/07/09 04:59:44;;;;;;;6.10;4.38;;;;;;;;;;4991112;28;20030;-75
2021/07/09 05:02:10;;;;;;;6.85;4.90;;;;;;;;;;4991398;28;20073;-77
2021/07/09 05:04:35;;;;;;;5.63;4.70;;;;;;;;;;4991323;28;20038;-76
2021/07/09 05:07:00;;;;;;;5.50;4.30;;;;;;;;;;4991894;28;20030;-75
2021/07/09 05:09:25;;;;;;;7.05;4.68;;;;;;;;;;4990680;28;20265;-75
2021/07/09 05:11:51;;;;;;;6.10;4.40;;;;;;;;;;4992341;28;20065;-83
2021/07/09 05:14:16;;;;;;;6.47;4.50;;;;;;;;;;4990758;28;20057;-75
2021/07/09 05:16:41;;;;;;;8.85;5.00;;;;;;;;;;4973041;28;20089;-74
2021/07/09 05:19:06;;;;;;;8.53;4.77;;;;;;;;;;4990836;28;20174;-77
2021/07/09 05:21:32;;;;;;;7.00;4.83;;;;;;;;;;4990511;28;20049;-74
2021/07/09 05:23:59;;;;;;;5.72;4.43;;;;;;;;;;4991068;28;20265;-75
2021/07/09 05:26:24;;;;;;;6.93;4.78;;;;;;;;;;4990847;28;20109;-75
2021/07/09 05:28:50;;;;;;;7.38;5.28;;;;;;;;;;5000369;28;20117;-76
2021/07/09 05:31:15;;;;;;;9.10;5.00;;;;;;;;;;4998697;28;20105;-76
2021/07/09 05:33:40;;;;;;;6.90;4.70;;;;;;;;;;4994992;28;20912;-73
2021/07/09 05:36:06;;;;;;;7.63;5.10;;;;;;;;;;4994270;28;20026;-73
2021/07/09 05:38:31;;;;;;;7.93;5.10;;;;;;;;;;4994966;28;20273;-74
2021/07/09 05:40:56;;;;;;;6.97;5.40;;;;;;;;;;4993248;28;20028;-72
2021/07/09 05:43:21;;;;;;;6.97;5.27;;;;;;;;;;4989889;28;20101;-74
2021/07/09 05:45:47;;;;;;;6.35;4.82;;;;;;;;;;4990969;28;20053;-79
2021/07/09 05:48:12;;;;;;;7.27;5.53;;;;;;;;;;4973638;28;20057;-77
2021/07/09 05:50:37;;;;;;;7.53;5.37;;;;;;;;;;4991290;28;20708;-70
2021/07/09 05:53:02;;;;;;;7.43;4.80;;;;;;;;;;4968354;28;20364;-79
2021/07/09 05:55:28;;;;;;;7.05;4.85;;;;;;;;;;4985756;28;20274;-75
2021/07/09 05:57:53;;;;;;;8.50;5.10;;;;;;;;;;4985528;28;20026;-78
2021/07/09 06:00:18;;;;;;;6.18;5.15;;;;;;;;;;4988970;28;20591;-73
2021/07/09 06:02:43;;;;;;;7.10;4.80;;;;;;;;;;4972107;28;20413;-70
2021/07/09 06:05:09;;;;;;;7.40;5.10;;;;;;;;;;4988675;28;20416;-70
2021/07/09 06:07:34;;;;;;;7.75;5.43;;;;;;;;;;4994221;28;20848;-70
2021/07/09 06:09:59;;;;;;;9.35;5.50;;;;;;;;;;4963321;28;20030;-71
2021/07/09 06:12:25;;;;;;;12.70;5.70;;;;;;;;;;4987606;28;20128;-71
2021/07/09 06:14:55;;;;;;;7.55;5.20;;;;;;;;;;4989822;28;20030;-71
2021/07/09 06:17:20;;;;;;;6.55;5.05;;;;;;;;;;4989159;28;20049;-71
2021/07/09 06:19:46;;;;;;;8.27;5.27;;;;;;;;;;4989489;28;20077;-75
2021/07/09 06:22:11;;;;;;;6.25;5.40;;;;;;;;;;4989506;28;20034;-76
2021/07/09 06:24:36;;;;;;;8.37;5.57;;;;;;;;;;4989621;28;20029;-71
2021/07/09 06:27:02;;;;;;;9.17;6.40;;;;;;;;;;4989327;28;20269;-71
2021/07/09 06:29:27;;;;;;;7.45;5.47;;;;;;;;;;5002509;28;20484;-71
2021/07/09 06:31:52;;;;;;;10.93;5.97;;;;;;;;;;4989514;28;20075;-71
2021/07/09 06:34:17;;;;;;;8.57;5.20;;;;;;;;;;4971866;28;20026;-71
2021/07/09 06:36:43;;;;;;;7.38;5.47;;;;;;;;;;4989035;28;20292;-71
2021/07/09 06:39:08;;;;;;;7.65;6.00;;;;;;;;;;4988826;28;20117;-71
2021/07/09 06:41:33;;;;;;;8.97;5.70;;;;;;;;;;4988660;28;20022;-71
2021/07/09 06:44:00;;;;;;;9.93;5.45;;;;;;;;;;4989181;28;20080;-71
2021/07/09 06:46:25;;;;;;;7.35;5.13;;;;;;;;;;4988854;28;20042;-71
2021/07/09 06:48:50;;;;;;;6.68;5.35;;;;;;;;;;4988834;28;20026;-71
2021/07/09 06:51:16;;;;;;;7.47;5.60;;;;;;;;;;4988692;28;20758;-71
2021/07/09 06:53:41;;;;;;;9.45;6.00;;;;;;;;;;4973117;28;20469;-72
2021/07/09 06:56:06;;;;;;;8.10;5.55;;;;;;;;;;4968644;28;20034;-72
2021/07/09 06:58:31;;;;;;;10.05;6.25;;;;;;;;;;4972519;28;20405;-72
2021/07/09 07:00:57;;;;;;;12.63;5.37;;;;;;;;;;4971685;28;20037;-72
2021/07/09 07:03:22;;;;;;;8.25;5.50;;;;;;;;;;4972264;28;20405;-71
2021/07/09 07:05:48;;;;;;;7.97;5.38;;;;;;;;;;4971282;28;20023;-71
2021/07/09 07:08:17;;;;;;;9.15;5.70;;;;;;;;;;4971049;28;20037;-72
2021/07/09 07:10:42;;;;;;;9.47;5.70;;;;;;;;;;4970396;28;20022;-72
2021/07/09 07:13:07;;;;;;;7.93;5.57;;;;;;;;;;4979396;28;20830;-72
2021/07/09 07:15:32;;;;;;;8.20;5.27;;;;;;;;;;4987956;28;20440;-72
2021/07/09 07:17:58;;;;;;;7.83;5.70;;;;;;;;;;4988372;28;20509;-73
2021/07/09 07:20:23;;;;;;;8.15;5.55;;;;;;;;;;4970917;28;20559;-72
2021/07/09 07:22:48;;;;;;;8.90;5.27;;;;;;;;;;4988363;28;20029;-72
2021/07/09 07:25:14;;;;;;;8.20;5.17;;;;;;;;;;4988792;28;20026;-72
2021/07/09 07:27:39;;;;;;;9.88;4.95;;;;;;;;;;4984288;28;20117;-73
2021/07/09 07:30:04;;;;;;;9.43;5.73;;;;;;;;;;4986677;28;20026;-72
2021/07/09 07:32:30;;;;;;;8.52;5.90;;;;;;;;;;4972413;28;20293;-72
2021/07/09 07:34:55;;;;;;;8.57;5.30;;;;;;;;;;4968972;28;20022;-72
2021/07/09 07:37:20;;;;;;;12.10;5.83;;;;;;;;;;4968079;28;20026;-72
2021/07/09 07:39:46;;;;;;;8.65;5.80;;;;;;;;;;4978105;28;20277;-72
2021/07/09 07:42:11;;;;;;;8.10;5.28;;;;;;;;;;4988516;28;20026;-72
2021/07/09 07:44:36;;;;;;;10.43;6.20;;;;;;;;;;4987048;28;20026;-72
2021/07/09 07:47:02;;;;;;;12.23;7.10;;;;;;;;;;4970819;28;20295;-71
2021/07/09 07:49:27;;;;;;;10.23;6.05;;;;;;;;;;4971088;28;20309;-74
2021/07/09 07:51:52;;;;;;;8.10;5.27;;;;;;;;;;4969428;28;20466;-74
2021/07/09 07:54:18;;;;;;;6.10;4.65;;;;;;;;;;4968379;28;20260;-72
2021/07/09 07:56:43;;;;;;;8.77;5.28;;;;;;;;;;4969332;28;20121;-70
2021/07/09 07:59:08;;;;;;;10.40;6.10;;;;;;;;;;4968717;28;20054;-71
2021/07/09 08:01:34;;;;;;;7.93;5.27;;;;;;;;;;4970769;28;20499;-71
2021/07/09 08:03:59;;;;;;;7.95;5.25;;;;;;;;;;4988100;28;20718;-70
2021/07/09 08:06:24;;;;;;;7.40;5.30;;;;;;;;;;4979630;28;20720;-71
2021/07/09 08:08:49;;;;;;;6.27;5.10;;;;;;;;;;4969624;28;20270;-71
2021/07/09 08:11:15;;;;;;;6.75;4.85;;;;;;;;;;4972076;28;20085;-70
2021/07/09 08:13:40;;;;;;;7.63;5.25;;;;;;;;;;4970695;28;20035;-70
2021/07/09 08:16:06;;;;;;;7.60;5.30;;;;;;;;;;4972379;28;20054;-70
2021/07/09 08:18:31;;;;;;;7.13;5.38;;;;;;;;;;4954949;28;20385;-71
2021/07/09 08:20:57;;;;;;;8.18;4.88;;;;;;;;;;4972838;28;20023;-71
2021/07/09 08:23:22;;;;;;;6.47;5.10;;;;;;;;;;4987442;28;20405;-70
2021/07/09 08:25:48;;;;;;;6.90;5.10;;;;;;;;;;4991536;28;20030;-71
2021/07/09 08:28:14;;;;;;;6.03;4.65;;;;;;;;;;4975383;28;20142;-71
2021/07/09 08:30:41;;;;;;;6.93;5.10;;;;;;;;;;4972062;28;20545;-71
2021/07/09 08:33:06;;;;;;;6.30;4.80;;;;;;;;;;4970772;28;20492;-71
2021/07/09 08:35:31;;;;;;;6.73;4.43;;;;;;;;;;4972389;28;20027;-70
2021/07/09 08:37:57;;;;;;;6.25;4.63;;;;;;;;;;4971444;28;20473;-70
2021/07/09 08:40:22;;;;;;;6.10;4.55;;;;;;;;;;4954623;28;20026;-72
2021/07/09 08:42:47;;;;;;;6.43;4.80;;;;;;;;;;4984336;28;20034;-70
2021/07/09 08:45:12;;;;;;;6.57;4.80;;;;;;;;;;4991758;28;20058;-69
2021/07/09 08:47:38;;;;;;;6.65;4.25;;;;;;;;;;4977261;28;20421;-70
2021/07/09 08:50:03;;;;;;;7.80;4.70;;;;;;;;;;4971626;28;20445;-72
2021/07/09 08:52:29;;;;;;;5.93;4.60;;;;;;;;;;4981167;28;20285;-69
2021/07/09 08:54:54;;;;;;;6.47;4.72;;;;;;;;;;4991413;28;20023;-69
2021/07/09 08:57:19;;;;;;;5.33;3.87;;;;;;;;;;4990036;28;20148;-70
2021/07/09 08:59:44;;;;;;;7.50;4.60;;;;;;;;;;4982907;28;20269;-69
2021/07/09 09:02:10;;;;;;;5.10;4.07;;;;;;;;;;4990166;28;20034;-69
2021/07/09 09:04:36;;;;;;;7.10;4.20;;;;;;;;;;5007635;28;20034;-72
2021/07/09 09:07:13;;;;;;;5.95;4.03;;;;;;;;;;4982496;28;20505;-70
2021/07/09 09:09:39;;;;;;;5.35;4.30;;;;;;;;;;4970514;28;20026;-70
2021/07/09 09:12:11;;;;;;;5.68;4.55;;;;;;;;;;4970956;28;20026;-70
2021/07/09 09:14:46;;;;;;;6.43;4.13;;;;;;;;;;4971582;28;20066;-69
2021/07/09 09:17:33;;;;;;;6.68;4.32;;;;;;;;;;4953925;28;20054;-70
2021/07/09 09:20:05;;;;;;;5.35;4.05;;;;;;;;;;4971158;28;20026;-69
2021/07/09 09:22:32;;;;;;;5.63;4.10;;;;;;;;;;4974178;28;20022;-70
2021/07/09 09:25:00;;;;;;;5.65;4.03;;;;;;;;;;4984466;28;20113;-70
2021/07/09 09:27:25;;;;;;;5.75;4.38;;;;;;;;;;4972901;28;20108;-69
2021/07/09 09:29:50;;;;;;;5.65;3.80;;;;;;;;;;4969173;28;20166;-70
2021/07/09 09:32:16;;;;;;;5.43;4.40;;;;;;;;;;4969837;28;20038;-69
2021/07/09 09:34:42;;;;;;;4.82;3.92;;;;;;;;;;4970447;28;20031;-70
2021/07/09 09:37:07;;;;;;;4.70;3.83;;;;;;;;;;4969974;28;20030;-69
2021/07/09 09:39:32;;;;;;;4.80;3.72;;;;;;;;;;4970720;28;20112;-71
2021/07/09 09:42:08;;;;;;;4.73;3.77;;;;;;;;;;4971249;28;20031;-70
2021/07/09 09:44:33;;;;;;;4.80;3.75;;;;;;;;;;4971623;28;20022;-70
2021/07/09 09:47:11;;;;;;;5.20;3.87;;;;;;;;;;4969913;28;20026;-69
2021/07/09 09:49:36;;;;;;;5.30;4.13;;;;;;;;;;4970345;28;20027;-69
2021/07/09 09:52:01;;;;;;;5.10;3.97;;;;;;;;;;4969754;28;20524;-69
2021/07/09 09:54:32;;;;;;;4.90;3.65;;;;;;;;;;4970532;28;20027;-69
2021/07/09 09:56:57;;;;;;;4.38;3.67;;;;;;;;;;4970658;28;20030;-69
2021/07/09 09:59:23;;;;;;;4.77;4.07;;;;;;;;;;4970472;28;20031;-70
2021/07/09 10:01:48;;;;;;;4.53;3.60;;;;;;;;;;4970469;28;20026;-69
2021/07/09 10:04:14;;;;;;;4.30;3.70;;;;;;;;;;4970028;28;20033;-69
2021/07/09 10:06:39;;;;;;;5.03;4.20;;;;;;;;;;4970512;28;20266;-69
2021/07/09 10:09:04;;;;;;;5.25;3.75;;;;;;;;;;4969411;28;20130;-69
2021/07/09 10:11:29;;;;;;;4.90;3.70;;;;;;;;;;4952890;28;20497;-69
2021/07/09 10:13:55;;;;;;;4.40;3.30;;;;;;;;;;4976582;28;20817;-69
2021/07/09 10:16:21;;;;;;;4.57;3.17;;;;;;;;;;4989400;28;20544;-70
2021/07/09 10:18:46;;;;;;;5.10;3.72;;;;;;;;;;4988722;28;20019;-69
2021/07/09 10:21:11;;;;;;;5.70;4.03;;;;;;;;;;4972105;28;20021;-70
2021/07/09 10:23:36;;;;;;;4.30;3.27;;;;;;;;;;4968357;28;20270;-70
2021/07/09 10:26:02;;;;;;;4.18;3.25;;;;;;;;;;4989828;28;20296;-70
2021/07/09 10:28:27;;;;;;;4.13;3.13;;;;;;;;;;4961695;28;20114;-70
2021/07/09 10:30:53;;;;;;;4.50;3.30;;;;;;;;;;4969563;28;20055;-70
2021/07/09 10:33:31;;;;;;;4.28;3.33;;;;;;;;;;4980152;28;20022;-71
2021/07/09 10:35:57;;;;;;;4.47;3.58;;;;;;;;;;5008566;28;20109;-70
2021/07/09 10:38:23;;;;;;;4.10;2.97;;;;;;;;;;5006625;28;20579;-70
2021/07/09 10:40:48;;;;;;;5.57;3.45;;;;;;;;;;5007813;28;20032;-70
2021/07/09 10:43:14;;;;;;;5.28;3.40;;;;;;;;;;4990268;28;20034;-71
2021/07/09 10:45:39;;;;;;;4.78;3.10;;;;;;;;;;4982990;28;20125;-71
2021/07/09 10:48:15;;;;;;;4.55;3.08;;;;;;;;;;4993513;28;20053;-70
2021/07/09 10:50:41;;;;;;;4.15;3.17;;;;;;;;;;5008758;28;20022;-72
2021/07/09 10:53:10;;;;;;;3.85;2.80;;;;;;;;;;5008356;28;20022;-70
2021/07/09 10:56:01;;;;;;;3.95;3.03;;;;;;;;;;5008896;28;20049;-75
2021/07/09 10:58:27;;;;;;;4.25;3.05;;;;;;;;;;5003432;28;20129;-70
2021/07/09 11:00:55;;;;;;;4.78;3.17;;;;;;;;;;5008113;28;20117;-71
2021/07/09 11:03:39;;;;;;;4.20;2.90;;;;;;;;;;5008418;28;20021;-71
2021/07/09 11:06:12;;;;;;;4.70;3.20;;;;;;;;;;5008322;28;20052;-71
2021/07/09 11:08:37;;;;;;;4.60;3.05;;;;;;;;;;5007801;28;20120;-72
2021/07/09 11:11:12;;;;;;;3.55;2.72;;;;;;;;;;5007444;28;20133;-71
2021/07/09 11:13:41;;;;;;;5.90;3.10;;;;;;;;;;4981867;28;20403;-69
2021/07/09 11:16:22;;;;;;;4.32;2.97;;;;;;;;;;5007324;28;20145;-69
2021/07/09 11:18:56;;;;;;;5.05;3.05;;;;;;;;;;4982698;28;20104;-71
2021/07/09 11:21:31;;;;;;;4.18;3.10;;;;;;;;;;5008430;28;20030;-70
2021/07/09 11:23:57;;;;;;;3.75;2.90;;;;;;;;;;4982596;28;20109;-71
2021/07/09 11:26:22;;;;;;;3.22;2.78;;;;;;;;;;5008214;28;20164;-70
2021/07/09 11:28:48;;;;;;;3.92;2.80;;;;;;;;;;5007746;28;20014;-69
2021/07/09 11:31:28;;;;;;;4.05;3.15;;;;;;;;;;5007814;28;20033;-69
2021/07/09 11:33:53;;;;;;;;;;;;;;;;;;5008507;28;20014;-69
2021/07/09 11:36:19;;;;;;;3.40;2.53;;;;;;;;;;4997150;28;19909;-69
2021/07/09 11:39:03;;;;;;;4.75;2.85;;;;;;;;;;4966043;28;20056;-73
2021/07/09 11:41:28;;;;;;;3.92;2.85;;;;;;;;;;4985957;28;20518;-73
2021/07/09 11:43:53;;;;;;;3.85;2.70;;;;;;;;;;5005055;28;20164;-73
2021/07/09 11:46:18;;;;;;;4.27;2.70;;;;;;;;;;5007683;28;20022;-74
2021/07/09 11:48:44;;;;;;;3.73;2.90;;;;;;;;;;5007266;28;20083;-74
2021/07/09 11:51:09;;;;;;;3.58;2.92;;;;;;;;;;5007682;28;20156;-74
2021/07/09 11:53:37;;;;;;;3.10;2.50;;;;;;;;;;5006513;28;20060;-73
2021/07/09 11:56:17;;;;;;;3.95;2.70;;;;;;;;;;5007630;28;20029;-74
2021/07/09 11:58:42;;;;;;;3.17;2.63;;;;;;;;;;5007988;28;20029;-74
2021/07/09 12:01:17;;;;;;;3.63;2.90;;;;;;;;;;5007569;28;20404;-74
2021/07/09 12:03:48;;;;;;;4.30;2.65;;;;;;;;;;5007643;28;20408;-74
2021/07/09 12:06:20;;;;;;;3.97;2.85;;;;;;;;;;5007689;28;20412;-74
2021/07/09 12:08:55;;;;;;;3.63;2.78;;;;;;;;;;5007495;28;20022;-74
2021/07/09 12:11:21;;;;;;;4.18;2.80;;;;;;;;;;5003174;28;20501;-74
2021/07/09 12:14:02;;;;;;;3.03;2.40;;;;;;;;;;4998245;28;20025;-74
2021/07/09 12:16:27;;;;;;;3.55;2.45;;;;;;;;;;5007198;28;20049;-74
2021/07/09 12:18:53;;;;;;;4.03;2.90;;;;;;;;;;5007386;28;20033;-74
2021/07/09 12:21:18;;;;;;;3.27;2.40;;;;;;;;;;4989820;28;20034;-74
2021/07/09 12:23:43;;;;;;;3.25;2.60;;;;;;;;;;5007504;28;20083;-74
2021/07/09 12:26:09;;;;;;;3.33;2.50;;;;;;;;;;5007590;28;20025;-74
2021/07/09 12:28:35;;;;;;;3.42;2.42;;;;;;;;;;5007542;28;20506;-74
2021/07/09 12:31:01;;;;;;;3.25;2.30;;;;;;;;;;5007303;28;20029;-74
2021/07/09 12:33:30;;;;;;;3.05;2.30;;;;;;;;;;5006910;28;20022;-74
2021/07/09 12:35:59;;;;;;;3.38;2.47;;;;;;;;;;5007353;28;20406;-74
2021/07/09 12:38:24;;;;;;;2.85;2.40;;;;;;;;;;5006942;28;20038;-74
2021/07/09 12:40:51;;;;;;;3.63;2.65;;;;;;;;;;4989626;28;20032;-71
2021/07/09 12:43:20;;;;;;;4.10;2.42;;;;;;;;;;5006958;28;20033;-73
2021/07/09 12:45:57;;;;;;;3.22;2.35;;;;;;;;;;5007498;28;20033;-74
2021/07/09 12:48:35;;;;;;;3.22;2.15;;;;;;;;;;5006907;28;20036;-72
2021/07/09 12:51:14;;;;;;;2.83;2.30;;;;;;;;;;5007168;28;20057;-72
2021/07/09 12:53:39;;;;;;;4.22;2.55;;;;;;;;;;4989540;28;20116;-72
2021/07/09 12:56:14;;;;;;;3.83;2.30;;;;;;;;;;4989717;28;20184;-72
2021/07/09 12:58:39;;;;;;;3.22;2.50;;;;;;;;;;5006706;28;20026;-74
2021/07/09 13:01:08;;;;;;;11.83;2.87;;;;;;;;;;4991677;28;20045;-72
2021/07/09 13:03:33;;;;;;;4.40;2.30;;;;;;;;;;5002586;28;20034;-74
2021/07/09 13:05:59;;;;;;;3.25;2.50;;;;;;;;;;4985021;28;20034;-73
2021/07/09 13:08:25;;;;;;;4.57;2.30;;;;;;;;;;4971695;28;20034;-71
2021/07/09 13:11:10;;;;;;;3.50;2.35;;;;;;;;;;4975412;28;20073;-73
2021/07/09 13:13:36;;;;;;;4.00;2.38;;;;;;;;;;4996125;28;20614;-73
2021/07/09 13:16:11;;;;;;;3.05;2.38;;;;;;;;;;4995885;28;20536;-73
2021/07/09 13:18:37;;;;;;;3.15;2.17;;;;;;;;;;4997713;28;20772;-73
2021/07/09 13:21:03;;;;;;;3.35;2.45;;;;;;;;;;4994960;28;20026;-73
2021/07/09 13:23:28;;;;;;;3.22;2.50;;;;;;;;;;5000105;28;20101;-79
2021/07/09 13:26:00;;;;;;;3.08;2.40;;;;;;;;;;4980416;28;20054;-76
2021/07/09 13:28:34;;;;;;;3.38;2.72;;;;;;;;;;4994977;28;20026;-83
2021/07/09 13:31:00;;;;;;;3.17;2.33;;;;;;;;;;5004967;28;20030;-86
2021/07/09 13:33:25;;;;;;;3.80;2.50;;;;;;;;;;4976795;28;20037;-81
2021/07/09 13:35:54;;;;;;;3.33;2.43;;;;;;;;;;4993302;28;20266;-86
2021/07/09 13:38:20;;;;;;;6.22;2.47;;;;;;;;;;4991443;28;20026;-79
2021/07/09 13:40:45;;;;;;;3.43;2.60;;;;;;;;;;4992015;28;20676;-82
2021/07/09 13:43:10;;;;;;;2.73;1.90;;;;;;;;;;4991869;28;20273;-80
2021/07/09 13:45:37;;;;;;;4.78;2.45;;;;;;;;;;4990900;28;20037;-79
2021/07/09 13:48:02;;;;;;;3.35;2.30;;;;;;;;;;4990368;28;20031;-79
2021/07/09 13:50:30;;;;;;;4.28;2.50;;;;;;;;;;4992156;28;20121;-84
2021/07/09 13:52:56;;;;;;;3.35;2.25;;;;;;;;;;4992373;28;20026;-80
2021/07/09 13:55:21;;;;;;;3.33;2.13;;;;;;;;;;4990467;28;20092;-77
2021/07/09 13:57:47;;;;;;;2.55;2.03;;;;;;;;;;4979454;28;20121;-77
2021/07/09 14:00:12;;;;;;;2.90;1.90;;;;;;;;;;4988038;28;20100;-77
2021/07/09 14:02:37;;;;;;;3.20;2.20;;;;;;;;;;4990418;28;20022;-77
2021/07/09 14:05:03;;;;;;;3.10;2.38;;;;;;;;;;4989908;28;20034;-79
2021/07/09 14:07:29;;;;;;;2.45;2.08;;;;;;;;;;4978909;28;20038;-77
2021/07/09 14:09:54;;;;;;;2.90;2.10;;;;;;;;;;4990838;28;20041;-77
2021/07/09 14:12:22;;;;;;;3.70;2.50;;;;;;;;;;4990875;28;20699;-77
2021/07/09 14:14:47;;;;;;;2.95;2.30;;;;;;;;;;4990849;28;20496;-78
2021/07/09 14:17:13;;;;;;;3.70;2.20;;;;;;;;;;4990553;28;20053;-76
2021/07/09 14:19:38;;;;;;;2.92;2.08;;;;;;;;;;4989909;28;20026;-78
2021/07/09 14:22:04;;;;;;;3.00;2.20;;;;;;;;;;4989468;28;20104;-78
2021/07/09 14:24:29;;;;;;;2.30;1.92;;;;;;;;;;4989639;28;20258;-78
2021/07/09 14:26:54;;;;;;;4.40;2.20;;;;;;;;;;4990006;28;20124;-78
2021/07/09 14:29:19;;;;;;;2.17;1.90;;;;;;;;;;4989877;28;20029;-79
2021/07/09 14:31:45;;;;;;;4.63;2.20;;;;;;;;;;4989841;28;20110;-79
2021/07/09 14:34:10;;;;;;;3.10;2.30;;;;;;;;;;4972138;28;20026;-77
2021/07/09 14:36:35;;;;;;;2.97;2.08;;;;;;;;;;4971893;28;20862;-77
2021/07/09 14:39:02;;;;;;;2.60;1.95;;;;;;;;;;4989264;28;20054;-78